Time;durP1;ratioP1;P1;durP2;ratioP2;P2;SDS_P1;SDS_P2;PMS_P1;PMS_P2;Temp;Humidity;BMP_temperature;BMP_pressure;BME280_temperature;BME280_humidity;BME280_pressure;Samples;Min_cycle;Max_cycle;Signal;HPM_P1;HPM_P2
2022/06/03 00:01:49;;;;;;;;;;;15.30;99.90;;;;;;8395329;28;19943;-74
2022/06/03 00:05:54;;;;;;;;;;;15.40;99.90;;;;;;8402730;28;19935;-74
2022/06/03 00:09:56;;;;;;;;;;;15.30;99.90;;;;;;8398291;28;20031;-74
2022/06/03 00:13:57;;;;;;;;;;;15.30;99.90;;;;;;8399284;28;20344;-74
2022/06/03 00:18:34;;;;;;;;;;;15.30;99.90;;;;;;8402748;28;19921;-74
2022/06/03 00:22:39;;;;;;;;;;;15.20;99.90;;;;;;8394419;28;20010;-74
2022/06/03 00:26:48;;;;;;;;;;;15.20;99.90;;;;;;8382384;28;21458;-74
2022/06/03 00:31:05;;;;;;;;;;;15.10;99.90;;;;;;8393591;28;19927;-74
2022/06/03 00:35:07;;;;;;;;;;;15.10;99.90;;;;;;8398979;28;19936;-74
2022/06/03 00:39:14;;;;;;;;;;;15.10;99.90;;;;;;8392832;28;19935;-75
2022/06/03 00:43:16;;;;;;;;;;;15.00;99.90;;;;;;8407793;28;19920;-74
2022/06/03 00:47:37;;;;;;;;;;;15.00;99.90;;;;;;8391384;28;20030;-74
2022/06/03 00:51:57;;;;;;;;;;;14.90;99.90;;;;;;8415789;28;19920;-74
2022/06/03 00:56:18;;;;;;;;;;;14.90;99.90;;;;;;8388349;28;19920;-74
2022/06/03 01:00:26;;;;;;;;;;;14.80;99.90;;;;;;8403221;28;20371;-74
2022/06/03 01:04:40;;;;;;;;;;;14.80;99.90;;;;;;8393295;28;20007;-74
2022/06/03 01:08:44;;;;;;;;;;;14.70;99.90;;;;;;8394266;28;19920;-74
2022/06/03 01:12:49;;;;;;;;;;;14.70;99.90;;;;;;8389350;28;20298;-74
2022/06/03 01:17:13;;;;;;;;;;;14.70;99.90;;;;;;8387952;28;19985;-74
2022/06/03 01:21:33;;;;;;;;;;;14.70;99.90;;;;;;8400991;28;19920;-74
2022/06/03 01:25:38;;;;;;;;;;;14.60;99.90;;;;;;8395955;28;20403;-74
2022/06/03 01:29:43;;;;;;;;;;;14.60;99.90;;;;;;8382705;28;19943;-74
2022/06/03 01:33:59;;;;;;;;;;;14.60;99.90;;;;;;8391191;28;20371;-74
2022/06/03 01:38:07;;;;;;;;;;;14.60;99.90;;;;;;8389991;28;19936;-74
2022/06/03 01:42:15;;;;;;;;;;;14.60;99.90;;;;;;8394553;28;19990;-74
2022/06/03 01:46:23;;;;;;;;;;;14.60;99.90;;;;;;8388889;28;19920;-74
2022/06/03 01:50:40;;;;;;;;;;;14.50;99.90;;;;;;8402407;28;20400;-74
2022/06/03 01:54:45;;;;;;;;;;;14.50;99.90;;;;;;8392759;28;19924;-74
2022/06/03 01:58:54;;;;;;;;;;;14.50;99.90;;;;;;8400888;28;20000;-74
2022/06/03 02:03:26;;;;;;;;;;;14.40;99.90;;;;;;8399464;28;20360;-74
2022/06/03 02:07:47;;;;;;;;;;;14.40;99.90;;;;;;8381844;28;19931;-74
2022/06/03 02:11:48;;;;;;;;;;;14.40;99.90;;;;;;8385204;28;19936;-74
2022/06/03 02:15:57;;;;;;;;;;;14.40;99.90;;;;;;8393691;28;20384;-74
2022/06/03 02:20:18;;;;;;;;;;;14.30;99.90;;;;;;8401824;28;19935;-74
2022/06/03 02:24:25;;;;;;;;;;;14.30;99.90;;;;;;8389399;28;19954;-74
2022/06/03 02:28:46;;;;;;;;;;;14.30;99.90;;;;;;8395700;28;19936;-74
2022/06/03 02:32:48;;;;;;;;;;;14.20;99.90;;;;;;8375428;28;19920;-74
2022/06/03 02:36:49;;;;;;;;;;;14.20;99.90;;;;;;8393248;28;19920;-74
2022/06/03 02:40:52;;;;;;;;;;;14.20;99.90;;;;;;8391879;28;20507;-74
2022/06/03 02:45:03;;;;;;;;;;;14.10;99.90;;;;;;8390462;28;19930;-75
2022/06/03 02:49:34;;;;;;;;;;;14.10;99.90;;;;;;8383972;28;19960;-74
2022/06/03 02:53:38;;;;;;;;;;;14.10;99.90;;;;;;8397069;28;19928;-74
2022/06/03 02:57:59;;;;;;;;;;;14.00;99.90;;;;;;8393543;28;19920;-74
2022/06/03 03:02:10;;;;;;;;;;;14.00;99.90;;;;;;8386961;28;20364;-74
2022/06/03 03:06:24;;;;;;;;;;;14.00;99.90;;;;;;8415565;28;20023;-74
2022/06/03 03:10:32;;;;;;;;;;;13.90;99.90;;;;;;8405037;28;19936;-74
2022/06/03 03:14:33;;;;;;;;;;;13.90;99.90;;;;;;8389704;28;19931;-74
2022/06/03 03:18:38;;;;;;;;;;;13.90;99.90;;;;;;8394960;28;19955;-74
2022/06/03 03:22:52;;;;;;;;;;;13.90;99.90;;;;;;8399962;28;19920;-74
2022/06/03 03:27:12;;;;;;;;;;;13.90;99.90;;;;;;8404921;28;19921;-74
2022/06/03 03:31:34;;;;;;;;;;;13.90;99.90;;;;;;8392894;28;19927;-74
2022/06/03 03:36:05;;;;;;;;;;;13.80;99.90;;;;;;8429798;27;19934;-74
2022/06/03 03:40:25;;;;;;;;;;;13.80;99.90;;;;;;8393210;28;20310;-74
2022/06/03 03:44:43;;;;;;;;;;;13.80;99.90;;;;;;8381517;28;19935;-74
2022/06/03 03:49:04;;;;;;;;;;;13.80;99.90;;;;;;8359187;28;20431;-74
2022/06/03 03:53:15;;;;;;;;;;;13.80;99.90;;;;;;8351419;28;19920;-74
2022/06/03 03:57:20;;;;;;;;;;;13.80;99.90;;;;;;8359076;28;19928;-74
2022/06/03 04:01:51;;;;;;;;;;;13.80;99.90;;;;;;8357879;28;19932;-74
2022/06/03 04:06:11;;;;;;;;;;;13.80;99.90;;;;;;8358858;28;19921;-74
2022/06/03 04:10:12;;;;;;;;;;;13.70;99.90;;;;;;8356417;28;20384;-74
2022/06/03 04:14:32;;;;;;;;;;;13.70;99.90;;;;;;8354374;28;19939;-74
2022/06/03 04:18:56;;;;;;;;;;;13.70;99.90;;;;;;8364934;28;20288;-73
2022/06/03 04:23:20;;;;;;;;;;;13.60;99.90;;;;;;8351707;28;19921;-74
2022/06/03 04:27:31;;;;;;;;;;;13.60;99.90;;;;;;8359251;28;19928;-74
2022/06/03 04:31:50;;;;;;;;;;;13.60;99.90;;;;;;8364796;28;19936;-74
2022/06/03 04:36:11;;;;;;;;;;;13.60;99.90;;;;;;8346919;28;19920;-74
2022/06/03 04:40:19;;;;;;;;;;;13.70;99.90;;;;;;8368287;28;19924;-74
2022/06/03 04:44:23;;;;;;;;;;;13.70;99.90;;;;;;8382635;28;19924;-74
2022/06/03 04:48:44;;;;;;;;;;;13.80;99.90;;;;;;8401647;28;20271;-74
2022/06/03 04:52:55;;;;;;;;;;;13.80;99.90;;;;;;8412061;28;20380;-74
2022/06/03 04:57:15;;;;;;;;;;;13.90;99.90;;;;;;8384550;28;19940;-74
2022/06/03 05:01:46;;;;;;;;;;;14.00;99.90;;;;;;8381566;28;19928;-74
2022/06/03 05:05:48;;;;;;;;;;;14.10;99.90;;;;;;8348313;28;19927;-74
2022/06/03 05:09:50;;;;;;;;;;;14.20;99.90;;;;;;8385873;28;19921;-73
2022/06/03 05:14:10;;;;;;;;;;;14.30;99.90;;;;;;8384455;28;19956;-74
2022/06/03 05:18:18;;;;;;;;;;;14.40;99.90;;;;;;8392915;28;19919;-74
2022/06/03 05:22:34;;;;;;;;;;;14.50;99.90;;;;;;8382645;28;19932;-74
2022/06/03 05:26:45;;;;;;;;;;;14.60;99.90;;;;;;8386229;28;19924;-75
2022/06/03 05:30:53;;;;;;;;;;;14.70;99.90;;;;;;8387917;28;19928;-74
2022/06/03 05:35:13;;;;;;;;;;;14.80;99.90;;;;;;8390840;28;19928;-74
2022/06/03 05:39:15;;;;;;;;;;;14.80;99.90;;;;;;8388557;28;19920;-74
2022/06/03 05:43:37;;;;;;;;;;;14.90;99.90;;;;;;8398468;28;20138;-74
2022/06/03 05:47:43;;;;;;;;;;;15.00;99.90;;;;;;8381786;28;20153;-74
2022/06/03 05:51:51;;;;;;;;;;;15.10;99.90;;;;;;8391038;28;19924;-75
2022/06/03 05:56:05;;;;;;;;;;;15.20;99.90;;;;;;8395899;28;20403;-74
2022/06/03 06:00:13;;;;;;;;;;;15.20;99.90;;;;;;8390136;28;19928;-74
2022/06/03 06:04:30;;;;;;;;;;;15.30;99.90;;;;;;8388190;28;19935;-74
2022/06/03 06:08:46;;;;;;;;;;;15.50;99.90;;;;;;8384445;28;19928;-74
2022/06/03 06:13:06;;;;;;;;;;;15.50;99.90;;;;;;8382410;28;19928;-74
2022/06/03 06:17:28;;;;;;;;;;;15.60;99.90;;;;;;8407722;28;19940;-74
2022/06/03 06:21:29;;;;;;;;;;;15.70;99.90;;;;;;8391376;28;19924;-74
2022/06/03 06:25:38;;;;;;;;;;;15.90;99.90;;;;;;8391530;28;19925;-75
2022/06/03 06:29:59;;;;;;;;;;;16.00;99.90;;;;;;8386039;28;20265;-74
2022/06/03 06:34:00;;;;;;;;;;;16.10;99.90;;;;;;8397852;28;19925;-74
2022/06/03 06:38:19;;;;;;;;;;;16.20;99.90;;;;;;8391166;28;19924;-74
2022/06/03 06:42:30;;;;;;;;;;;16.30;99.90;;;;;;8404952;28;19932;-74
2022/06/03 06:46:48;;;;;;;;;;;16.40;99.90;;;;;;8405150;28;19932;-74
2022/06/03 06:50:49;;;;;;;;;;;16.60;99.90;;;;;;8408284;28;19940;-74
2022/06/03 06:54:51;;;;;;;;;;;16.70;99.90;;;;;;8408383;28;19925;-74
2022/06/03 06:59:22;;;;;;;;;;;16.80;99.90;;;;;;8409025;28;19973;-74
2022/06/03 07:03:43;;;;;;;;;;;17.00;99.90;;;;;;8393121;28;19925;-73
2022/06/03 07:07:51;;;;;;;;;;;17.10;99.90;;;;;;8391713;28;19924;-72
2022/06/03 07:11:52;;;;;;;;;;;17.10;99.90;;;;;;8400516;28;19959;-72
2022/06/03 07:16:01;;;;;;;;;;;17.30;99.90;;;;;;8400179;28;19939;-72
2022/06/03 07:20:05;;;;;;;;;;;17.40;99.90;;;;;;8395777;28;19932;-72
2022/06/03 07:24:14;;;;;;;;;;;17.50;99.90;;;;;;8401515;28;19925;-72
2022/06/03 07:28:24;;;;;;;;;;;17.60;99.90;;;;;;8396091;28;19928;-72
2022/06/03 07:32:29;;;;;;;;;;;17.70;99.90;;;;;;8400726;28;20284;-72
2022/06/03 07:36:34;;;;;;;;;;;17.80;99.90;;;;;;8401303;28;20333;-72
2022/06/03 07:40:41;;;;;;;;;;;17.90;99.90;;;;;;8394388;28;19925;-72
2022/06/03 07:44:43;;;;;;;;;;;18.00;99.90;;;;;;8400129;28;19929;-72
2022/06/03 07:48:45;;;;;;;;;;;18.20;99.90;;;;;;8407671;28;20030;-72
2022/06/03 07:53:00;;;;;;;;;;;18.30;99.90;;;;;;8396577;28;20046;-72
2022/06/03 07:57:04;;;;;;;;;;;18.40;99.90;;;;;;8396963;28;19924;-72
2022/06/03 08:01:20;;;;;;;;;;;18.50;99.90;;;;;;8395491;28;19930;-72
2022/06/03 08:05:22;;;;;;;;;;;18.50;99.90;;;;;;8395304;28;19920;-72
2022/06/03 08:13:47;;;;;;;;;;;18.70;99.90;;;;;;8368436;28;19927;-72
2022/06/03 08:17:49;;;;;;;;;;;18.80;99.90;;;;;;8358907;28;20432;-72
2022/06/03 08:21:55;;;;;;;;;;;18.90;99.90;;;;;;8364785;28;20379;-72
2022/06/03 08:26:01;;;;;;;;;;;19.00;99.90;;;;;;8369633;28;19931;-72
2022/06/03 08:30:06;;;;;;;;;;;19.10;99.90;;;;;;8372098;28;20249;-72
2022/06/03 08:34:11;;;;;;;;;;;19.10;99.90;;;;;;8371777;28;19935;-72
2022/06/03 08:38:16;;;;;;;;;;;19.20;99.90;;;;;;8390889;28;20284;-72
2022/06/03 08:42:26;;;;;;;;;;;19.30;99.90;;;;;;8360676;28;19921;-73
2022/06/03 08:46:34;;;;;;;;;;;19.40;99.90;;;;;;8356296;28;19943;-72
2022/06/03 08:50:42;;;;;;;;;;;19.40;99.90;;;;;;8351127;28;19987;-72
2022/06/03 08:54:48;;;;;;;;;;;19.50;99.90;;;;;;8360658;28;20023;-72
2022/06/03 08:58:54;;;;;;;;;;;19.60;99.90;;;;;;8361780;28;20003;-72
2022/06/03 09:03:00;;;;;;;;;;;19.60;99.90;;;;;;8357833;28;19924;-72
2022/06/03 09:07:04;;;;;;;;;;;19.70;99.90;;;;;;8358265;28;20004;-72
2022/06/03 09:11:20;;;;;;;4.95;2.92;;;19.80;99.90;;;;;;8358597;28;20647;-72
2022/06/03 09:15:25;;;;;;;4.80;3.00;;;19.90;99.90;;;;;;8360504;28;20073;-72
2022/06/03 09:19:50;;;;;;;5.65;2.40;;;20.00;99.90;;;;;;8362893;28;20092;-72
2022/06/03 09:23:57;;;;;;;4.90;2.95;;;20.10;99.90;;;;;;8360904;28;20044;-71
2022/06/03 09:28:04;;;;;;;4.43;2.72;;;20.20;99.90;;;;;;8357739;28;20407;-72
2022/06/03 09:32:08;;;;;;;4.65;2.78;;;20.30;99.90;;;;;;8355594;28;20040;-72
2022/06/03 09:36:15;;;;;;;6.32;2.60;;;20.40;99.90;;;;;;8354665;28;20053;-73
2022/06/03 09:40:21;;;;;;;5.97;2.93;;;20.40;99.90;;;;;;8359097;28;20041;-72
2022/06/03 09:44:25;;;;;;;4.72;2.85;;;20.50;99.90;;;;;;8355789;28;20311;-72
2022/06/03 09:48:34;;;;;;;4.45;2.53;;;20.60;99.90;;;;;;8357624;28;20403;-72
2022/06/03 09:52:36;;;;;;;4.78;2.67;;;20.70;99.90;;;;;;8372912;28;20128;-72
2022/06/03 09:56:39;;;;;;;4.55;2.65;;;20.80;99.90;;;;;;8370878;28;20056;-72
2022/06/03 10:00:47;;;;;;;4.68;2.50;;;20.80;99.90;;;;;;8358207;28;20049;-72
2022/06/03 10:04:49;;;;;;;5.70;2.85;;;20.90;99.90;;;;;;8359303;28;20049;-73
2022/06/03 10:13:12;;;;;;;5.05;2.28;;;21.00;99.90;;;;;;8358908;28;20049;-72
2022/06/03 10:17:13;;;;;;;6.45;2.70;;;21.10;99.90;;;;;;8364429;28;20045;-72
2022/06/03 10:21:15;;;;;;;4.47;2.47;;;21.10;99.90;;;;;;8364093;28;20049;-72
2022/06/03 10:25:17;;;;;;;4.05;2.05;;;21.20;99.90;;;;;;8368876;28;20049;-72
2022/06/03 10:29:22;;;;;;;4.30;2.05;;;21.20;99.90;;;;;;8373169;28;20060;-72
2022/06/03 10:33:24;;;;;;;6.07;2.88;;;21.30;99.90;;;;;;8361528;28;20053;-72
2022/06/03 10:37:26;;;;;;;3.80;2.10;;;21.30;99.90;;;;;;8361220;28;20500;-72
2022/06/03 10:41:38;;;;;;;4.03;2.00;;;21.30;99.90;;;;;;8378849;28;21134;-72
2022/06/03 10:45:40;;;;;;;3.20;1.80;;;21.40;99.90;;;;;;8363907;28;20139;-72
2022/06/03 10:49:57;;;;;;;3.55;1.70;;;21.50;99.90;;;;;;8362130;28;20053;-72
2022/06/03 11:02:48;;;;;;;3.42;1.55;;;21.80;99.90;;;;;;8360216;28;20139;-72
2022/06/03 11:06:50;;;;;;;3.00;1.70;;;21.90;99.90;;;;;;8359862;28;20088;-73
2022/06/03 11:10:56;;;;;;;3.80;1.60;;;22.00;99.90;;;;;;8358866;28;20049;-72
2022/06/03 11:14:58;;;;;;;3.30;1.70;;;22.10;99.90;;;;;;8375496;28;20045;-72
2022/06/03 11:19:17;;;;;;;3.42;1.70;;;22.10;99.90;;;;;;8365089;28;20295;-74
2022/06/03 11:23:20;;;;;;;3.88;1.60;;;22.20;99.90;;;;;;8360556;28;20045;-73
2022/06/03 11:27:29;;;;;;;3.33;1.60;;;22.30;99.90;;;;;;8362126;28;20048;-73
2022/06/03 11:31:35;;;;;;;3.10;1.50;;;22.40;99.90;;;;;;8372598;28;20230;-72
2022/06/03 11:35:44;;;;;;;3.27;1.70;;;22.50;99.90;;;;;;8365556;28;20128;-72
2022/06/03 11:40:06;;;;;;;2.70;1.40;;;22.50;99.90;;;;;;8367068;28;20436;-75
2022/06/03 11:44:36;;;;;;;3.50;1.70;;;22.60;99.90;;;;;;8371835;28;20580;-75
2022/06/03 11:48:41;;;;;;;3.38;1.65;;;22.70;99.90;;;;;;8358100;28;20048;-75
2022/06/03 11:52:43;;;;;;;3.20;1.58;;;22.70;99.90;;;;;;8364143;28;20041;-75
2022/06/03 11:56:46;;;;;;;2.70;1.50;;;22.60;99.90;;;;;;8360314;28;20361;-75
2022/06/03 12:00:57;;;;;;;3.30;1.70;;;22.70;99.90;;;;;;8363547;28;20204;-74
2022/06/03 12:05:21;;;;;;;3.45;1.80;;;22.70;99.90;;;;;;8365267;28;19928;-75
2022/06/03 12:09:55;;;;;;;3.30;1.75;;;22.80;99.90;;;;;;8360818;28;20048;-75
2022/06/03 12:14:27;;;;;;;3.03;1.55;;;22.80;99.90;;;;;;8374570;28;20128;-75
2022/06/03 12:18:32;;;;;;;3.50;1.80;;;22.80;99.90;;;;;;8362509;28;20044;-74
2022/06/03 12:22:36;;;;;;;3.65;1.77;;;23.00;99.90;;;;;;8363508;28;20236;-75
2022/06/03 12:27:03;;;;;;;4.28;1.70;;;23.00;99.90;;;;;;8372337;28;20083;-75
2022/06/03 12:31:08;;;;;;;;;;;23.10;99.90;;;;;;8360985;28;20404;-74
2022/06/03 12:35:47;;;;;;;5.50;1.80;;;23.10;99.90;;;;;;8358797;28;19935;-75
2022/06/03 12:40:20;;;;;;;3.17;1.50;;;23.20;99.90;;;;;;8361178;28;20803;-74
2022/06/03 12:44:49;;;;;;;3.50;1.67;;;23.20;99.90;;;;;;8356151;28;20049;-74
2022/06/03 12:48:54;;;;;;;3.08;1.60;;;23.20;99.90;;;;;;8357371;28;20404;-74
2022/06/03 12:53:20;;;;;;;3.70;1.95;;;23.20;99.90;;;;;;8359850;28;20048;-74
2022/06/03 12:57:29;;;;;;;3.40;1.70;;;23.30;99.90;;;;;;8355565;28;20049;-75
2022/06/03 13:01:40;;;;;;;3.55;1.80;;;23.20;99.90;;;;;;8370829;28;20390;-72
2022/06/03 13:05:49;;;;;;;3.38;1.67;;;23.20;99.90;;;;;;8354606;28;20056;-72
2022/06/03 13:09:56;;;;;;;3.13;1.70;;;23.20;99.90;;;;;;8357478;28;20053;-72
2022/06/03 13:13:57;;;;;;;3.40;1.67;;;23.20;99.90;;;;;;8359074;28;20049;-72
2022/06/03 13:18:13;;;;;;;4.10;1.50;;;23.20;99.90;;;;;;8364751;28;20049;-72
2022/06/03 13:22:25;;;;;;;4.15;1.65;;;23.20;99.90;;;;;;8375845;28;20049;-74
2022/06/03 13:26:29;;;;;;;3.20;1.60;;;23.20;99.90;;;;;;8358509;28;20064;-74
2022/06/03 13:30:37;;;;;;;3.40;1.85;;;23.20;99.90;;;;;;8360566;28;20060;-75
2022/06/03 13:34:43;;;;;;;3.63;1.90;;;23.30;99.90;;;;;;8359996;28;20048;-74
2022/06/03 13:38:46;;;;;;;5.03;2.00;;;23.30;99.90;;;;;;8357565;28;20162;-75
2022/06/03 13:43:00;;;;;;;3.17;1.67;;;23.40;99.90;;;;;;8360000;28;20071;-74
2022/06/03 13:47:10;;;;;;;2.93;1.50;;;23.40;99.90;;;;;;8360097;28;20052;-72
2022/06/03 13:51:35;;;;;;;4.13;1.63;;;23.50;99.90;;;;;;8366559;28;20285;-72
2022/06/03 13:55:37;;;;;;;2.72;1.70;;;23.60;99.90;;;;;;8374256;28;20495;-72
2022/06/03 13:59:41;;;;;;;4.05;2.17;;;23.70;99.90;;;;;;8357507;28;20511;-72
2022/06/03 14:03:52;;;;;;;4.07;2.00;;;23.70;99.90;;;;;;8370662;28;20045;-72
2022/06/03 14:07:59;;;;;;;3.05;1.60;;;23.70;99.90;;;;;;8356536;28;20489;-72
2022/06/03 14:12:06;;;;;;;4.22;1.80;;;23.70;99.90;;;;;;8360940;28;20361;-72
2022/06/03 14:16:13;;;;;;;4.13;1.55;;;23.80;99.90;;;;;;8359341;28;20053;-72
2022/06/03 14:20:26;;;;;;;3.70;1.95;;;23.90;99.90;;;;;;8359006;28;20110;-72
2022/06/03 14:24:36;;;;;;;3.50;1.70;;;24.00;99.90;;;;;;8372736;28;20060;-72
2022/06/03 14:28:54;;;;;;;3.80;1.70;;;24.10;99.90;;;;;;8360212;28;20060;-72
2022/06/03 14:32:58;;;;;;;3.55;1.73;;;24.20;99.90;;;;;;8369707;28;20056;-73
2022/06/03 14:37:02;;;;;;;3.08;1.60;;;24.30;99.90;;;;;;8369923;28;20049;-75
2022/06/03 14:41:14;;;;;;;3.08;1.90;;;24.40;99.90;;;;;;8355357;28;20056;-74
2022/06/03 14:45:16;;;;;;;3.15;1.73;;;24.50;99.90;;;;;;8360619;28;20056;-74
2022/06/03 14:49:29;;;;;;;2.65;1.50;;;24.60;99.90;;;;;;8354020;28;20049;-74
2022/06/03 14:53:37;;;;;;;5.43;2.00;;;24.70;99.90;;;;;;8354610;28;20527;-75
2022/06/03 14:57:48;;;;;;;4.63;1.90;;;24.70;99.90;;;;;;8365511;28;20424;-75
2022/06/03 15:02:05;;;;;;;6.13;1.67;;;24.60;99.90;;;;;;8367986;28;20053;-75
2022/06/03 15:06:39;;;;;;;2.80;1.35;;;24.60;99.90;;;;;;8367496;28;20165;-75
2022/06/03 15:10:49;;;;;;;3.20;1.60;;;24.50;99.90;;;;;;8363965;28;20540;-74
2022/06/03 15:14:53;;;;;;;;;;;24.50;99.90;;;;;;8359380;28;20395;-74
2022/06/03 15:18:54;;;;;;;;;;;24.60;99.90;;;;;;8392385;28;19924;-75
2022/06/03 15:22:57;;;;;;;;;;;24.60;99.90;;;;;;8366188;28;19921;-74
2022/06/03 15:26:59;;;;;;;;;;;24.50;99.90;;;;;;8365496;28;19921;-75
2022/06/03 15:31:02;;;;;;;;;;;24.50;99.90;;;;;;8392906;28;19924;-75
2022/06/03 15:35:04;;;;;;;;;;;24.40;99.90;;;;;;8361719;28;25131;-75
2022/06/03 15:39:15;;;;;;;;;;;24.40;99.90;;;;;;8358092;28;19927;-73
2022/06/03 15:43:24;;;;;;;;;;;24.40;99.90;;;;;;8356908;28;19924;-73
2022/06/03 15:47:34;;;;;;;;;;;24.40;99.90;;;;;;8357634;28;19948;-73
2022/06/03 15:51:41;;;;;;;;;;;24.50;99.90;;;;;;8360534;28;19921;-73
2022/06/03 15:55:49;;;;;;;;;;;24.50;99.90;;;;;;8362640;28;19920;-73
2022/06/03 16:00:06;;;;;;;;;;;24.60;99.90;;;;;;8357787;28;20180;-73
2022/06/03 16:04:21;;;;;;;;;;;24.80;99.90;;;;;;8360715;28;19940;-73
2022/06/03 16:08:42;;;;;;;;;;;25.10;99.90;;;;;;8372125;28;20014;-73
2022/06/03 16:13:19;;;;;;;3.70;1.80;;;25.30;99.90;;;;;;8364064;28;19982;-72
2022/06/03 16:17:30;;;;;;;4.25;1.60;;;25.80;99.90;;;;;;8361661;28;20049;-72
2022/06/03 16:22:09;;;;;;;3.67;1.50;;;26.20;99.90;;;;;;8358651;28;20040;-73
2022/06/03 16:26:23;;;;;;;3.05;1.60;;;26.50;99.90;;;;;;8376934;28;20041;-72
2022/06/03 16:30:41;;;;;;;3.17;1.70;;;26.90;99.90;;;;;;8363405;28;20491;-73
2022/06/03 16:34:49;;;;;;;4.68;1.70;;;27.00;99.90;;;;;;8357397;28;20049;-72
2022/06/03 16:39:16;;;;;;;3.30;1.52;;;26.80;99.90;;;;;;8354264;28;20451;-73
2022/06/03 16:43:30;;;;;;;3.13;1.70;;;26.50;99.90;;;;;;8358656;28;20539;-75
2022/06/03 16:47:47;;;;;;;3.35;1.67;;;26.30;99.90;;;;;;8357563;28;20500;-75
2022/06/03 16:51:59;;;;;;;3.70;1.70;;;26.10;99.90;;;;;;8358842;28;20119;-72
2022/06/03 16:56:01;;;;;;;2.58;1.38;;;26.10;99.90;;;;;;8358291;28;20041;-72
2022/06/03 17:00:09;;;;;;;2.85;1.50;;;26.30;99.90;;;;;;8356806;28;20297;-73
2022/06/03 17:04:13;;;;;;;3.30;1.70;;;26.40;99.50;;;;;;8372387;28;20085;-73
2022/06/03 17:08:42;;;;;;;4.00;1.77;;;26.50;99.70;;;;;;8356668;28;20093;-72
2022/06/03 17:12:45;;;;;;;2.78;1.70;;;26.60;99.50;;;;;;8354604;28;20055;-73
2022/06/03 17:16:52;;;;;;;3.50;1.67;;;26.70;99.60;;;;;;8376682;28;20139;-73
2022/06/03 17:21:09;;;;;;;4.40;1.70;;;26.70;99.30;;;;;;8357129;28;20045;-73
2022/06/03 17:25:30;;;;;;;3.03;1.58;;;26.60;99.00;;;;;;8355486;28;20633;-73
2022/06/03 17:29:41;;;;;;;2.90;1.60;;;26.70;99.40;;;;;;8350605;28;20086;-73
2022/06/03 17:33:58;;;;;;;3.17;1.60;;;26.80;99.40;;;;;;8356684;28;20456;-73
2022/06/03 17:38:19;;;;;;;3.33;1.70;;;26.60;98.60;;;;;;8357256;28;20059;-73
2022/06/03 17:42:29;;;;;;;4.13;1.70;;;26.30;98.00;;;;;;8358186;28;20606;-73
2022/06/03 17:46:55;;;;;;;3.75;1.65;;;26.00;97.50;;;;;;8354925;28;20052;-73
2022/06/03 17:56:22;;;;;;;4.95;1.75;;;25.30;96.80;;;;;;8335853;28;20059;-73
2022/06/03 18:00:39;;;;;;;4.43;1.67;;;25.00;96.40;;;;;;8349799;28;20055;-73
2022/06/03 18:04:50;;;;;;;3.72;1.92;;;24.80;96.20;;;;;;8358737;28;20087;-73
2022/06/03 18:09:07;;;;;;;3.38;1.58;;;24.50;95.80;;;;;;8358906;28;20049;-73
2022/06/03 18:13:21;;;;;;;3.50;1.83;;;24.40;95.60;;;;;;8352164;28;20045;-73
2022/06/03 18:17:32;;;;;;;3.47;1.75;;;24.20;95.60;;;;;;8359873;28;20488;-73
2022/06/03 18:21:57;;;;;;;3.08;1.70;;;24.10;95.40;;;;;;8355481;28;20048;-73
2022/06/03 18:26:01;;;;;;;3.72;1.80;;;24.00;95.20;;;;;;8357748;28;20049;-73
2022/06/03 18:30:27;;;;;;;3.42;1.70;;;23.90;95.30;;;;;;8357641;28;20068;-72
2022/06/03 18:34:56;;;;;;;3.47;1.73;;;23.80;95.20;;;;;;8362171;28;20036;-73
2022/06/03 18:39:11;;;;;;;3.80;1.75;;;23.70;95.10;;;;;;8365442;28;20102;-72
2022/06/03 18:43:38;;;;;;;3.72;1.70;;;23.50;95.00;;;;;;8358679;28;20049;-73
2022/06/03 18:47:56;;;;;;;4.70;1.70;;;23.50;95.00;;;;;;8363674;28;20164;-73
2022/06/03 18:52:09;;;;;;;4.47;1.50;;;23.30;94.90;;;;;;8360319;28;20049;-73
2022/06/03 18:56:34;;;;;;;5.05;1.67;;;23.20;95.10;;;;;;8362132;28;19939;-72
2022/06/03 19:00:40;;;;;;;2.95;1.40;;;23.00;95.20;;;;;;8359816;28;20361;-73
2022/06/03 19:05:16;;;;;;;3.20;1.50;;;22.90;95.20;;;;;;8359002;28;20057;-73
2022/06/03 19:09:28;;;;;;;;;;;22.70;95.20;;;;;;8357215;28;20056;-73
2022/06/03 19:13:54;;;;;;;2.95;1.30;;;22.60;95.20;;;;;;8359245;28;20316;-73
2022/06/03 19:18:01;;;;;;;;;;;22.40;95.20;;;;;;8347114;28;20048;-72
2022/06/03 19:22:06;;;;;;;;;;;22.40;95.30;;;;;;8362890;28;19932;-72
2022/06/03 19:26:30;;;;;;;;;;;22.20;95.20;;;;;;8362470;28;19928;-72
2022/06/03 19:30:32;;;;;;;;;;;22.10;95.20;;;;;;8351396;28;19921;-72
2022/06/03 19:34:34;;;;;;;;;;;22.00;95.20;;;;;;8360865;28;19921;-72
2022/06/03 19:38:42;;;;;;;;;;;22.00;95.30;;;;;;8360688;28;20353;-72
2022/06/03 19:42:54;;;;;;;;;;;21.80;95.20;;;;;;8363243;28;19931;-72
2022/06/03 19:47:20;;;;;;;;;;;21.80;95.20;;;;;;8357027;28;19928;-72
2022/06/03 19:51:23;;;;;;;;;;;21.70;95.20;;;;;;8363274;28;19928;-72
2022/06/03 19:55:28;;;;;;;;;;;21.60;95.10;;;;;;8358299;28;19928;-71
2022/06/03 19:59:42;;;;;;;;;;;21.50;95.10;;;;;;8372745;28;19921;-72
2022/06/03 20:03:56;;;;;;;;;;;21.40;95.00;;;;;;8359676;28;19924;-72
2022/06/03 20:08:12;;;;;;;4.10;1.45;;;21.30;95.00;;;;;;8391726;28;19929;-74
2022/06/03 20:16:53;;;;;;;3.70;1.50;;;21.10;94.90;;;;;;8357600;28;20053;-74
2022/06/03 20:21:01;;;;;;;5.35;1.58;;;21.00;94.90;;;;;;8357847;28;20052;-74
2022/06/03 20:25:23;;;;;;;3.90;1.58;;;20.90;95.20;;;;;;8358755;28;20064;-74
2022/06/03 20:29:28;;;;;;;4.47;1.55;;;20.80;94.80;;;;;;8359118;28;20056;-74
2022/06/03 20:33:49;;;;;;;4.20;1.50;;;20.80;94.80;;;;;;8376168;28;20422;-74
2022/06/03 20:37:57;;;;;;;;;;;20.70;94.80;;;;;;8349928;28;19924;-74
2022/06/03 20:42:14;;;;;;;;;;;20.60;94.80;;;;;;8357420;28;19955;-74
2022/06/03 20:46:27;;;;;;;;;;;20.60;94.80;;;;;;8368462;28;20026;-74
2022/06/03 20:50:36;;;;;;;;;;;20.50;94.70;;;;;;8351985;28;19920;-74
2022/06/03 20:54:53;;;;;;;;;;;20.40;94.70;;;;;;8355583;28;19924;-74
2022/06/03 20:59:18;;;;;;;;;;;20.40;94.70;;;;;;8351946;28;19947;-73
2022/06/03 21:16:29;;;;;;;;;;;20.10;94.70;;;;;;8385409;28;19932;-74
2022/06/03 21:20:48;;;;;;;;;;;20.00;94.70;;;;;;8385053;28;19924;-74
2022/06/03 21:24:53;;;;;;;;;;;20.00;94.70;;;;;;8391155;28;19932;-74
2022/06/03 21:28:54;;;;;;;;;;;19.90;94.70;;;;;;8395672;28;19925;-74
2022/06/03 21:33:22;;;;;;;;;;;19.90;94.70;;;;;;8385984;28;20390;-74
2022/06/03 21:37:44;;;;;;;;;;;19.80;94.70;;;;;;8383718;28;19928;-73
2022/06/03 21:41:46;;;;;;;;;;;19.70;94.70;;;;;;8378895;28;19924;-73
2022/06/03 21:46:07;;;;;;;;;;;19.70;94.80;;;;;;8362415;28;20613;-71
2022/06/03 21:50:10;;;;;;;;;;;19.70;94.80;;;;;;8347879;28;19941;-73
2022/06/03 21:54:31;;;;;;;;;;;19.50;94.80;;;;;;8341013;28;19924;-73
2022/06/03 21:58:36;;;;;;;;;;;19.50;94.90;;;;;;8352583;28;20395;-73
2022/06/03 22:02:38;;;;;;;;;;;19.40;94.90;;;;;;8346589;28;19924;-73
2022/06/03 22:06:40;;;;;;;;;;;19.30;94.90;;;;;;8356896;28;19928;-73
2022/06/03 22:10:42;;;;;;;;;;;19.30;95.00;;;;;;8341758;28;19920;-73
2022/06/03 22:14:44;;;;;;;;;;;19.20;95.00;;;;;;8363075;28;19928;-73
2022/06/03 22:18:46;;;;;;;;;;;19.10;95.00;;;;;;8360769;28;19928;-73
2022/06/03 22:22:48;;;;;;;;;;;19.00;95.00;;;;;;8356230;28;19921;-73
2022/06/03 22:27:04;;;;;;;;;;;18.90;95.00;;;;;;8356232;28;19920;-73
2022/06/03 22:31:14;;;;;;;;;;;18.80;94.90;;;;;;8355907;28;19928;-73
2022/06/03 22:35:17;;;;;;;;;;;18.80;95.00;;;;;;8355715;28;20277;-73
2022/06/03 22:39:24;;;;;;;;;;;18.80;95.00;;;;;;8344854;28;19950;-74
2022/06/03 22:43:38;;;;;;;;;;;18.70;95.00;;;;;;8356499;28;19928;-73
2022/06/03 22:47:40;;;;;;;;;;;18.60;95.00;;;;;;8392411;28;19981;-73
2022/06/03 22:51:45;;;;;;;;;;;18.50;94.90;;;;;;8385036;28;20348;-73
2022/06/03 22:55:47;;;;;;;;;;;18.50;94.90;;;;;;8388554;28;19928;-73
2022/06/03 22:59:49;;;;;;;;;;;18.40;95.00;;;;;;8384287;28;19927;-73
2022/06/03 23:03:51;;;;;;;;;;;18.30;95.00;;;;;;8384367;28;19920;-73
2022/06/03 23:07:53;;;;;;;;;;;18.20;95.00;;;;;;8378150;28;19951;-73
2022/06/03 23:11:56;;;;;;;;;;;18.10;95.00;;;;;;8382153;28;19924;-73
2022/06/03 23:15:57;;;;;;;;;;;18.00;95.00;;;;;;8385882;28;20324;-73
2022/06/03 23:20:00;;;;;;;;;;;17.90;95.10;;;;;;8389041;28;19935;-73
2022/06/03 23:24:02;;;;;;;;;;;17.80;95.10;;;;;;8426040;28;19943;-73
2022/06/03 23:28:04;;;;;;;;;;;17.70;95.10;;;;;;8424021;28;19920;-73
2022/06/03 23:32:06;;;;;;;;;;;17.70;95.20;;;;;;8390981;28;20394;-74
2022/06/03 23:36:07;;;;;;;;;;;17.60;95.20;;;;;;8389806;28;19987;-73
2022/06/03 23:40:09;;;;;;;;;;;17.60;95.30;;;;;;8385223;28;20360;-73
2022/06/03 23:48:32;;;;;;;;;;;17.40;95.30;;;;;;8387004;28;19943;-73
2022/06/03 23:52:33;;;;;;;;;;;17.40;95.30;;;;;;8389688;28;19920;-73
2022/06/03 23:56:35;;;;;;;;;;;17.30;95.30;;;;;;8390712;28;19924;-74
